CheckWX is a tool to help pilots better visualize weather data.  It is not intended as a substitute for an official pre-flight weather briefing.

16:29:09 UTC

EGDY TAF
RNAS Yeovilton Airport
Yeovil, United Kingdom
TAF EGDY 100726Z 1009/1018 30010KT 9999 FEW050

Jul-10@
09:00 UTC

Jul-10 @ 09:00 UTC

Jul-10@
18:00 UTC

Jul-10 @ 18:00 UTC

TAF EGDY 100726Z 1009/1018 30010KT 9999 FEW050
Wind
  • 300° at 10 KTS
Cloud Levels
  • Few at 5,000' AGL